sensor_id;sensor_type;location;lat;lon;timestamp;P1;durP1;ratioP1;P2;durP2;ratioP2
71639;SDS011;60912;48.968;10.124;2023-03-04T00:00:20;43.17;;;21.17;;
71639;SDS011;60912;48.968;10.124;2023-03-04T00:02:46;47.03;;;21.80;;
71639;SDS011;60912;48.968;10.124;2023-03-04T00:05:12;46.03;;;21.38;;
71639;SDS011;60912;48.968;10.124;2023-03-04T00:07:37;45.23;;;21.50;;
71639;SDS011;60912;48.968;10.124;2023-03-04T00:10:06;39.77;;;20.57;;
71639;SDS011;60912;48.968;10.124;2023-03-04T00:12:33;45.65;;;21.60;;
71639;SDS011;60912;48.968;10.124;2023-03-04T00:14:58;40.53;;;19.33;;
71639;SDS011;60912;48.968;10.124;2023-03-04T00:17:24;43.33;;;20.07;;
71639;SDS011;60912;48.968;10.124;2023-03-04T00:19:52;43.80;;;21.05;;
71639;SDS011;60912;48.968;10.124;2023-03-04T00:22:18;41.07;;;20.13;;
71639;SDS011;60912;48.968;10.124;2023-03-04T00:24:44;39.30;;;20.05;;
71639;SDS011;60912;48.968;10.124;2023-03-04T00:27:10;45.83;;;20.92;;
71639;SDS011;60912;48.968;10.124;2023-03-04T00:29:35;40.93;;;20.07;;
71639;SDS011;60912;48.968;10.124;2023-03-04T00:32:01;40.33;;;19.77;;
71639;SDS011;60912;48.968;10.124;2023-03-04T00:34:26;40.70;;;19.73;;
71639;SDS011;60912;48.968;10.124;2023-03-04T00:36:52;39.92;;;19.35;;
71639;SDS011;60912;48.968;10.124;2023-03-04T00:39:18;40.37;;;19.20;;
71639;SDS011;60912;48.968;10.124;2023-03-04T00:41:43;37.33;;;18.83;;
71639;SDS011;60912;48.968;10.124;2023-03-04T00:44:09;44.92;;;19.10;;
71639;SDS011;60912;48.968;10.124;2023-03-04T00:46:37;41.50;;;19.07;;
71639;SDS011;60912;48.968;10.124;2023-03-04T00:49:02;40.97;;;19.15;;
71639;SDS011;60912;48.968;10.124;2023-03-04T00:51:28;39.20;;;18.83;;
71639;SDS011;60912;48.968;10.124;2023-03-04T00:53:53;41.88;;;18.70;;
71639;SDS011;60912;48.968;10.124;2023-03-04T00:56:19;40.27;;;18.93;;
71639;SDS011;60912;48.968;10.124;2023-03-04T00:58:47;39.10;;;18.48;;
71639;SDS011;60912;48.968;10.124;2023-03-04T01:01:12;40.47;;;18.67;;
71639;SDS011;60912;48.968;10.124;2023-03-04T01:03:38;37.90;;;18.13;;
71639;SDS011;60912;48.968;10.124;2023-03-04T01:06:05;39.38;;;19.00;;
71639;SDS011;60912;48.968;10.124;2023-03-04T01:08:31;39.88;;;18.35;;
71639;SDS011;60912;48.968;10.124;2023-03-04T01:10:56;40.57;;;18.50;;
71639;SDS011;60912;48.968;10.124;2023-03-04T01:13:21;39.13;;;18.97;;
71639;SDS011;60912;48.968;10.124;2023-03-04T01:15:47;39.60;;;19.03;;
71639;SDS011;60912;48.968;10.124;2023-03-04T01:18:12;38.77;;;18.27;;
71639;SDS011;60912;48.968;10.124;2023-03-04T01:20:38;38.85;;;19.05;;
71639;SDS011;60912;48.968;10.124;2023-03-04T01:23:03;38.37;;;18.93;;
71639;SDS011;60912;48.968;10.124;2023-03-04T01:25:28;38.23;;;18.67;;
71639;SDS011;60912;48.968;10.124;2023-03-04T01:27:54;35.07;;;18.20;;
71639;SDS011;60912;48.968;10.124;2023-03-04T01:30:19;36.90;;;17.50;;
71639;SDS011;60912;48.968;10.124;2023-03-04T01:32:45;40.05;;;18.75;;
71639;SDS011;60912;48.968;10.124;2023-03-04T01:35:10;39.93;;;18.70;;
71639;SDS011;60912;48.968;10.124;2023-03-04T01:37:36;39.63;;;18.03;;
71639;SDS011;60912;48.968;10.124;2023-03-04T01:40:01;38.63;;;17.87;;
71639;SDS011;60912;48.968;10.124;2023-03-04T01:42:27;40.75;;;18.23;;
71639;SDS011;60912;48.968;10.124;2023-03-04T01:44:55;40.55;;;19.10;;
71639;SDS011;60912;48.968;10.124;2023-03-04T01:47:21;44.13;;;19.10;;
71639;SDS011;60912;48.968;10.124;2023-03-04T01:49:50;44.00;;;19.40;;
71639;SDS011;60912;48.968;10.124;2023-03-04T01:52:18;45.22;;;19.83;;
71639;SDS011;60912;48.968;10.124;2023-03-04T01:54:44;38.07;;;18.40;;
71639;SDS011;60912;48.968;10.124;2023-03-04T01:57:16;41.43;;;19.00;;
71639;SDS011;60912;48.968;10.124;2023-03-04T01:59:43;37.28;;;18.35;;
71639;SDS011;60912;48.968;10.124;2023-03-04T02:02:09;38.97;;;17.97;;
71639;SDS011;60912;48.968;10.124;2023-03-04T02:04:34;38.10;;;18.23;;
71639;SDS011;60912;48.968;10.124;2023-03-04T02:07:01;40.40;;;18.23;;
71639;SDS011;60912;48.968;10.124;2023-03-04T02:09:27;38.88;;;18.00;;
71639;SDS011;60912;48.968;10.124;2023-03-04T02:11:55;37.20;;;17.70;;
71639;SDS011;60912;48.968;10.124;2023-03-04T02:14:21;39.50;;;18.63;;
71639;SDS011;60912;48.968;10.124;2023-03-04T02:16:47;35.38;;;17.73;;
71639;SDS011;60912;48.968;10.124;2023-03-04T02:22:03;38.33;;;17.50;;
71639;SDS011;60912;48.968;10.124;2023-03-04T02:24:38;36.47;;;18.17;;
71639;SDS011;60912;48.968;10.124;2023-03-04T02:27:05;38.22;;;18.42;;
71639;SDS011;60912;48.968;10.124;2023-03-04T02:29:30;37.70;;;18.13;;
71639;SDS011;60912;48.968;10.124;2023-03-04T02:31:56;38.53;;;18.57;;
71639;SDS011;60912;48.968;10.124;2023-03-04T02:34:23;39.57;;;19.13;;
71639;SDS011;60912;48.968;10.124;2023-03-04T02:36:52;41.42;;;19.27;;
71639;SDS011;60912;48.968;10.124;2023-03-04T02:39:27;38.15;;;17.35;;
71639;SDS011;60912;48.968;10.124;2023-03-04T02:41:55;38.17;;;18.00;;
71639;SDS011;60912;48.968;10.124;2023-03-04T02:44:23;34.57;;;17.50;;
71639;SDS011;60912;48.968;10.124;2023-03-04T02:46:50;38.90;;;17.08;;
71639;SDS011;60912;48.968;10.124;2023-03-04T02:49:16;37.40;;;17.25;;
71639;SDS011;60912;48.968;10.124;2023-03-04T02:51:42;38.17;;;17.30;;
71639;SDS011;60912;48.968;10.124;2023-03-04T02:54:18;37.40;;;16.88;;
71639;SDS011;60912;48.968;10.124;2023-03-04T02:56:52;40.03;;;17.88;;
71639;SDS011;60912;48.968;10.124;2023-03-04T02:59:20;33.93;;;17.30;;
71639;SDS011;60912;48.968;10.124;2023-03-04T03:01:47;35.08;;;17.45;;
71639;SDS011;60912;48.968;10.124;2023-03-04T03:04:12;38.28;;;16.85;;
71639;SDS011;60912;48.968;10.124;2023-03-04T03:06:38;37.33;;;18.40;;
71639;SDS011;60912;48.968;10.124;2023-03-04T03:09:04;41.30;;;17.50;;
71639;SDS011;60912;48.968;10.124;2023-03-04T03:11:30;40.10;;;18.38;;
71639;SDS011;60912;48.968;10.124;2023-03-04T03:13:55;38.43;;;17.70;;
71639;SDS011;60912;48.968;10.124;2023-03-04T03:16:21;35.67;;;17.95;;
71639;SDS011;60912;48.968;10.124;2023-03-04T03:18:47;41.50;;;17.00;;
71639;SDS011;60912;48.968;10.124;2023-03-04T03:21:12;38.70;;;18.02;;
71639;SDS011;60912;48.968;10.124;2023-03-04T03:23:38;41.10;;;17.60;;
71639;SDS011;60912;48.968;10.124;2023-03-04T03:26:03;38.53;;;18.17;;
71639;SDS011;60912;48.968;10.124;2023-03-04T03:28:29;40.45;;;17.65;;
71639;SDS011;60912;48.968;10.124;2023-03-04T03:30:54;38.33;;;17.60;;
71639;SDS011;60912;48.968;10.124;2023-03-04T03:33:21;42.58;;;18.42;;
71639;SDS011;60912;48.968;10.124;2023-03-04T03:35:46;35.83;;;16.93;;
71639;SDS011;60912;48.968;10.124;2023-03-04T03:38:12;37.00;;;17.37;;
71639;SDS011;60912;48.968;10.124;2023-03-04T03:40:37;39.85;;;18.63;;
71639;SDS011;60912;48.968;10.124;2023-03-04T03:43:03;41.37;;;18.13;;
71639;SDS011;60912;48.968;10.124;2023-03-04T03:45:28;34.63;;;16.97;;
71639;SDS011;60912;48.968;10.124;2023-03-04T03:47:53;37.90;;;17.90;;
71639;SDS011;60912;48.968;10.124;2023-03-04T03:50:19;38.63;;;17.23;;
71639;SDS011;60912;48.968;10.124;2023-03-04T03:52:45;36.27;;;16.93;;
71639;SDS011;60912;48.968;10.124;2023-03-04T03:55:10;37.77;;;17.43;;
71639;SDS011;60912;48.968;10.124;2023-03-04T03:57:35;34.07;;;16.93;;
71639;SDS011;60912;48.968;10.124;2023-03-04T04:00:01;36.63;;;17.17;;
71639;SDS011;60912;48.968;10.124;2023-03-04T04:02:26;36.20;;;16.67;;
71639;SDS011;60912;48.968;10.124;2023-03-04T04:04:52;37.60;;;17.23;;
71639;SDS011;60912;48.968;10.124;2023-03-04T04:07:17;37.03;;;17.40;;
71639;SDS011;60912;48.968;10.124;2023-03-04T04:09:43;36.83;;;17.63;;
71639;SDS011;60912;48.968;10.124;2023-03-04T04:12:08;34.97;;;16.40;;
71639;SDS011;60912;48.968;10.124;2023-03-04T04:14:37;36.28;;;16.88;;
71639;SDS011;60912;48.968;10.124;2023-03-04T04:17:02;37.77;;;16.63;;
71639;SDS011;60912;48.968;10.124;2023-03-04T04:19:30;35.38;;;16.27;;
71639;SDS011;60912;48.968;10.124;2023-03-04T04:21:56;33.55;;;15.60;;
71639;SDS011;60912;48.968;10.124;2023-03-04T04:24:21;36.40;;;16.17;;
71639;SDS011;60912;48.968;10.124;2023-03-04T04:26:46;34.63;;;15.67;;
71639;SDS011;60912;48.968;10.124;2023-03-04T04:29:12;33.77;;;15.57;;
71639;SDS011;60912;48.968;10.124;2023-03-04T04:31:38;35.63;;;17.25;;
71639;SDS011;60912;48.968;10.124;2023-03-04T04:34:04;36.63;;;17.45;;
71639;SDS011;60912;48.968;10.124;2023-03-04T04:36:30;35.73;;;16.97;;
71639;SDS011;60912;48.968;10.124;2023-03-04T04:38:55;35.58;;;16.33;;
71639;SDS011;60912;48.968;10.124;2023-03-04T04:41:24;35.80;;;16.97;;
71639;SDS011;60912;48.968;10.124;2023-03-04T04:43:52;35.75;;;16.73;;
71639;SDS011;60912;48.968;10.124;2023-03-04T04:46:18;35.30;;;14.97;;
71639;SDS011;60912;48.968;10.124;2023-03-04T04:48:43;33.15;;;15.63;;
71639;SDS011;60912;48.968;10.124;2023-03-04T04:51:09;35.73;;;16.73;;
71639;SDS011;60912;48.968;10.124;2023-03-04T04:53:35;35.05;;;17.05;;
71639;SDS011;60912;48.968;10.124;2023-03-04T04:56:06;33.90;;;16.13;;
71639;SDS011;60912;48.968;10.124;2023-03-04T04:58:33;35.30;;;15.98;;
71639;SDS011;60912;48.968;10.124;2023-03-04T05:00:58;36.57;;;16.23;;
71639;SDS011;60912;48.968;10.124;2023-03-04T05:03:24;38.38;;;15.57;;
71639;SDS011;60912;48.968;10.124;2023-03-04T05:05:49;35.47;;;16.67;;
71639;SDS011;60912;48.968;10.124;2023-03-04T05:08:14;36.40;;;15.33;;
71639;SDS011;60912;48.968;10.124;2023-03-04T05:10:40;41.57;;;16.43;;
71639;SDS011;60912;48.968;10.124;2023-03-04T05:13:05;36.70;;;15.67;;
71639;SDS011;60912;48.968;10.124;2023-03-04T05:15:31;36.33;;;15.87;;
71639;SDS011;60912;48.968;10.124;2023-03-04T05:17:56;36.58;;;16.17;;
71639;SDS011;60912;48.968;10.124;2023-03-04T05:20:21;32.90;;;14.67;;
71639;SDS011;60912;48.968;10.124;2023-03-04T05:22:47;31.10;;;14.77;;
71639;SDS011;60912;48.968;10.124;2023-03-04T05:25:13;33.80;;;15.10;;
71639;SDS011;60912;48.968;10.124;2023-03-04T05:27:38;32.40;;;14.67;;
71639;SDS011;60912;48.968;10.124;2023-03-04T05:30:04;31.17;;;15.07;;
71639;SDS011;60912;48.968;10.124;2023-03-04T05:32:30;35.42;;;16.33;;
71639;SDS011;60912;48.968;10.124;2023-03-04T05:34:55;35.63;;;15.60;;
71639;SDS011;60912;48.968;10.124;2023-03-04T05:37:21;36.90;;;16.37;;
71639;SDS011;60912;48.968;10.124;2023-03-04T05:39:46;212.98;;;67.63;;
71639;SDS011;60912;48.968;10.124;2023-03-04T05:42:11;105.20;;;37.70;;
71639;SDS011;60912;48.968;10.124;2023-03-04T05:44:37;59.17;;;22.93;;
71639;SDS011;60912;48.968;10.124;2023-03-04T05:47:02;42.73;;;17.53;;
71639;SDS011;60912;48.968;10.124;2023-03-04T05:49:28;38.13;;;15.90;;
71639;SDS011;60912;48.968;10.124;2023-03-04T05:51:53;38.17;;;16.47;;
71639;SDS011;60912;48.968;10.124;2023-03-04T05:54:19;35.83;;;15.53;;
71639;SDS011;60912;48.968;10.124;2023-03-04T05:56:45;35.03;;;15.60;;
71639;SDS011;60912;48.968;10.124;2023-03-04T05:59:10;34.60;;;15.07;;
71639;SDS011;60912;48.968;10.124;2023-03-04T06:01:36;34.23;;;16.17;;
71639;SDS011;60912;48.968;10.124;2023-03-04T06:04:01;32.10;;;14.90;;
71639;SDS011;60912;48.968;10.124;2023-03-04T06:06:27;34.87;;;14.80;;
71639;SDS011;60912;48.968;10.124;2023-03-04T06:08:52;30.17;;;14.80;;
71639;SDS011;60912;48.968;10.124;2023-03-04T06:11:18;30.67;;;14.90;;
71639;SDS011;60912;48.968;10.124;2023-03-04T06:13:44;34.97;;;14.83;;
71639;SDS011;60912;48.968;10.124;2023-03-04T06:16:09;33.78;;;14.45;;
71639;SDS011;60912;48.968;10.124;2023-03-04T06:18:35;34.60;;;15.47;;
71639;SDS011;60912;48.968;10.124;2023-03-04T06:21:00;35.37;;;15.53;;
71639;SDS011;60912;48.968;10.124;2023-03-04T06:23:27;35.65;;;15.25;;
71639;SDS011;60912;48.968;10.124;2023-03-04T06:25:56;32.83;;;14.65;;
71639;SDS011;60912;48.968;10.124;2023-03-04T06:28:23;35.60;;;15.53;;
71639;SDS011;60912;48.968;10.124;2023-03-04T06:30:52;32.78;;;16.02;;
71639;SDS011;60912;48.968;10.124;2023-03-04T06:33:18;42.13;;;18.20;;
71639;SDS011;60912;48.968;10.124;2023-03-04T06:35:44;36.90;;;16.25;;
71639;SDS011;60912;48.968;10.124;2023-03-04T06:38:09;40.97;;;18.63;;
71639;SDS011;60912;48.968;10.124;2023-03-04T06:40:35;44.87;;;19.80;;
71639;SDS011;60912;48.968;10.124;2023-03-04T06:43:00;45.33;;;20.97;;
71639;SDS011;60912;48.968;10.124;2023-03-04T06:45:25;41.15;;;19.48;;
71639;SDS011;60912;48.968;10.124;2023-03-04T06:47:51;34.37;;;16.50;;
71639;SDS011;60912;48.968;10.124;2023-03-04T06:50:16;33.17;;;15.77;;
71639;SDS011;60912;48.968;10.124;2023-03-04T06:52:42;35.27;;;15.83;;
71639;SDS011;60912;48.968;10.124;2023-03-04T06:55:08;36.08;;;16.65;;
71639;SDS011;60912;48.968;10.124;2023-03-04T06:57:34;34.58;;;14.70;;
71639;SDS011;60912;48.968;10.124;2023-03-04T06:59:59;38.90;;;15.37;;
71639;SDS011;60912;48.968;10.124;2023-03-04T07:02:25;30.25;;;13.65;;
71639;SDS011;60912;48.968;10.124;2023-03-04T07:04:50;42.33;;;14.77;;
71639;SDS011;60912;48.968;10.124;2023-03-04T07:07:16;35.07;;;15.53;;
71639;SDS011;60912;48.968;10.124;2023-03-04T07:09:41;37.17;;;14.43;;
71639;SDS011;60912;48.968;10.124;2023-03-04T07:12:07;35.25;;;14.05;;
71639;SDS011;60912;48.968;10.124;2023-03-04T07:14:32;34.37;;;14.23;;
71639;SDS011;60912;48.968;10.124;2023-03-04T07:16:57;35.67;;;15.07;;
71639;SDS011;60912;48.968;10.124;2023-03-04T07:19:23;34.10;;;14.23;;
71639;SDS011;60912;48.968;10.124;2023-03-04T07:21:49;39.58;;;14.00;;
71639;SDS011;60912;48.968;10.124;2023-03-04T07:24:14;33.90;;;13.90;;
71639;SDS011;60912;48.968;10.124;2023-03-04T07:26:40;33.13;;;13.70;;
71639;SDS011;60912;48.968;10.124;2023-03-04T07:29:05;33.93;;;13.43;;
71639;SDS011;60912;48.968;10.124;2023-03-04T07:31:32;37.00;;;13.83;;
71639;SDS011;60912;48.968;10.124;2023-03-04T07:33:59;29.40;;;12.93;;
71639;SDS011;60912;48.968;10.124;2023-03-04T07:36:29;25.50;;;10.25;;
71639;SDS011;60912;48.968;10.124;2023-03-04T07:38:55;29.92;;;12.68;;
71639;SDS011;60912;48.968;10.124;2023-03-04T07:41:22;28.53;;;11.00;;
71639;SDS011;60912;48.968;10.124;2023-03-04T07:43:49;23.45;;;10.10;;
71639;SDS011;60912;48.968;10.124;2023-03-04T07:46:16;20.95;;;9.98;;
71639;SDS011;60912;48.968;10.124;2023-03-04T07:48:43;22.47;;;9.70;;
71639;SDS011;60912;48.968;10.124;2023-03-04T07:51:09;26.38;;;10.32;;
71639;SDS011;60912;48.968;10.124;2023-03-04T07:53:44;24.55;;;10.55;;
71639;SDS011;60912;48.968;10.124;2023-03-04T07:56:12;24.23;;;9.67;;
71639;SDS011;60912;48.968;10.124;2023-03-04T07:58:40;26.20;;;10.70;;
71639;SDS011;60912;48.968;10.124;2023-03-04T08:01:13;19.83;;;10.02;;
71639;SDS011;60912;48.968;10.124;2023-03-04T08:03:43;24.63;;;10.30;;
71639;SDS011;60912;48.968;10.124;2023-03-04T08:06:09;24.73;;;10.70;;
71639;SDS011;60912;48.968;10.124;2023-03-04T08:08:38;26.08;;;11.50;;
71639;SDS011;60912;48.968;10.124;2023-03-04T08:11:05;27.02;;;10.80;;
71639;SDS011;60912;48.968;10.124;2023-03-04T08:13:32;25.75;;;11.27;;
71639;SDS011;60912;48.968;10.124;2023-03-04T08:15:57;21.30;;;10.75;;
71639;SDS011;60912;48.968;10.124;2023-03-04T08:18:23;26.67;;;11.80;;
71639;SDS011;60912;48.968;10.124;2023-03-04T08:20:49;24.83;;;10.07;;
71639;SDS011;60912;48.968;10.124;2023-03-04T08:23:14;25.43;;;11.10;;
71639;SDS011;60912;48.968;10.124;2023-03-04T08:25:40;24.83;;;10.70;;
71639;SDS011;60912;48.968;10.124;2023-03-04T08:28:06;24.85;;;10.43;;
71639;SDS011;60912;48.968;10.124;2023-03-04T08:30:33;23.33;;;11.00;;
71639;SDS011;60912;48.968;10.124;2023-03-04T08:33:07;25.55;;;10.90;;
71639;SDS011;60912;48.968;10.124;2023-03-04T08:35:41;22.67;;;10.67;;
71639;SDS011;60912;48.968;10.124;2023-03-04T08:38:09;23.13;;;9.88;;
71639;SDS011;60912;48.968;10.124;2023-03-04T08:40:38;24.52;;;9.98;;
71639;SDS011;60912;48.968;10.124;2023-03-04T08:43:09;25.48;;;11.32;;
71639;SDS011;60912;48.968;10.124;2023-03-04T08:45:37;25.83;;;11.05;;
71639;SDS011;60912;48.968;10.124;2023-03-04T08:48:05;27.13;;;12.03;;
71639;SDS011;60912;48.968;10.124;2023-03-04T08:50:49;26.08;;;11.57;;
71639;SDS011;60912;48.968;10.124;2023-03-04T08:53:15;25.20;;;10.67;;
71639;SDS011;60912;48.968;10.124;2023-03-04T08:58:41;23.83;;;10.63;;
71639;SDS011;60912;48.968;10.124;2023-03-04T09:01:25;24.48;;;11.60;;
71639;SDS011;60912;48.968;10.124;2023-03-04T09:04:23;32.08;;;13.00;;
71639;SDS011;60912;48.968;10.124;2023-03-04T09:06:51;29.37;;;12.70;;
71639;SDS011;60912;48.968;10.124;2023-03-04T09:09:17;28.17;;;11.55;;
71639;SDS011;60912;48.968;10.124;2023-03-04T09:11:44;29.92;;;13.98;;
71639;SDS011;60912;48.968;10.124;2023-03-04T09:14:10;25.07;;;10.97;;
71639;SDS011;60912;48.968;10.124;2023-03-04T09:16:35;23.20;;;10.93;;
71639;SDS011;60912;48.968;10.124;2023-03-04T09:19:01;27.00;;;12.40;;
71639;SDS011;60912;48.968;10.124;2023-03-04T09:21:27;25.50;;;12.47;;
71639;SDS011;60912;48.968;10.124;2023-03-04T09:23:55;28.07;;;13.13;;
71639;SDS011;60912;48.968;10.124;2023-03-04T09:26:24;28.23;;;12.55;;
71639;SDS011;60912;48.968;10.124;2023-03-04T09:28:53;27.83;;;12.30;;
71639;SDS011;60912;48.968;10.124;2023-03-04T09:31:21;27.38;;;12.40;;
71639;SDS011;60912;48.968;10.124;2023-03-04T09:33:47;27.57;;;12.73;;
71639;SDS011;60912;48.968;10.124;2023-03-04T09:36:19;25.40;;;12.15;;
71639;SDS011;60912;48.968;10.124;2023-03-04T09:38:44;24.75;;;11.45;;
71639;SDS011;60912;48.968;10.124;2023-03-04T09:41:23;27.93;;;12.17;;
71639;SDS011;60912;48.968;10.124;2023-03-04T09:43:51;25.30;;;11.57;;
71639;SDS011;60912;48.968;10.124;2023-03-04T09:46:18;26.30;;;12.27;;
71639;SDS011;60912;48.968;10.124;2023-03-04T09:48:51;24.87;;;11.07;;
71639;SDS011;60912;48.968;10.124;2023-03-04T10:02:44;24.90;;;11.43;;
71639;SDS011;60912;48.968;10.124;2023-03-04T10:05:23;23.65;;;11.38;;
71639;SDS011;60912;48.968;10.124;2023-03-04T10:07:57;29.27;;;12.85;;
71639;SDS011;60912;48.968;10.124;2023-03-04T10:10:32;26.73;;;11.77;;
71639;SDS011;60912;48.968;10.124;2023-03-04T10:13:05;27.17;;;12.93;;
71639;SDS011;60912;48.968;10.124;2023-03-04T10:15:39;24.60;;;12.07;;
71639;SDS011;60912;48.968;10.124;2023-03-04T10:20:45;35.35;;;13.30;;
71639;SDS011;60912;48.968;10.124;2023-03-04T10:23:33;26.45;;;11.65;;
71639;SDS011;60912;48.968;10.124;2023-03-04T10:26:09;25.27;;;12.23;;
71639;SDS011;60912;48.968;10.124;2023-03-04T10:28:44;23.77;;;11.53;;
71639;SDS011;60912;48.968;10.124;2023-03-04T10:31:11;21.08;;;11.20;;
71639;SDS011;60912;48.968;10.124;2023-03-04T10:33:49;21.33;;;11.40;;
71639;SDS011;60912;48.968;10.124;2023-03-04T10:38:46;22.63;;;11.25;;
71639;SDS011;60912;48.968;10.124;2023-03-04T10:41:21;28.30;;;11.63;;
71639;SDS011;60912;48.968;10.124;2023-03-04T10:46:47;24.40;;;12.38;;
71639;SDS011;60912;48.968;10.124;2023-03-04T10:49:17;25.90;;;13.07;;
71639;SDS011;60912;48.968;10.124;2023-03-04T10:59:33;26.65;;;12.65;;
71639;SDS011;60912;48.968;10.124;2023-03-04T11:02:25;23.70;;;11.90;;
71639;SDS011;60912;48.968;10.124;2023-03-04T11:07:40;23.63;;;12.50;;
71639;SDS011;60912;48.968;10.124;2023-03-04T11:12:39;25.10;;;12.05;;
71639;SDS011;60912;48.968;10.124;2023-03-04T11:15:16;21.03;;;10.77;;
71639;SDS011;60912;48.968;10.124;2023-03-04T11:17:47;23.38;;;11.55;;
71639;SDS011;60912;48.968;10.124;2023-03-04T11:20:20;21.20;;;11.60;;
71639;SDS011;60912;48.968;10.124;2023-03-04T11:22:56;22.93;;;12.50;;
71639;SDS011;60912;48.968;10.124;2023-03-04T11:25:26;21.88;;;10.35;;
71639;SDS011;60912;48.968;10.124;2023-03-04T11:28:35;21.13;;;11.13;;
71639;SDS011;60912;48.968;10.124;2023-03-04T11:31:12;23.27;;;11.20;;
71639;SDS011;60912;48.968;10.124;2023-03-04T11:33:49;21.88;;;11.10;;
71639;SDS011;60912;48.968;10.124;2023-03-04T11:36:57;19.40;;;11.60;;
71639;SDS011;60912;48.968;10.124;2023-03-04T11:39:47;23.08;;;11.85;;
71639;SDS011;60912;48.968;10.124;2023-03-04T11:42:44;24.92;;;12.00;;
71639;SDS011;60912;48.968;10.124;2023-03-04T11:45:17;22.33;;;12.45;;
71639;SDS011;60912;48.968;10.124;2023-03-04T11:50:25;22.23;;;11.47;;
71639;SDS011;60912;48.968;10.124;2023-03-04T12:01:22;21.27;;;11.90;;
71639;SDS011;60912;48.968;10.124;2023-03-04T12:07:11;24.42;;;12.60;;
71639;SDS011;60912;48.968;10.124;2023-03-04T12:15:27;23.42;;;11.57;;
71639;SDS011;60912;48.968;10.124;2023-03-04T12:26:28;22.55;;;12.43;;
71639;SDS011;60912;48.968;10.124;2023-03-04T12:29:03;25.42;;;13.05;;
71639;SDS011;60912;48.968;10.124;2023-03-04T12:31:41;24.27;;;12.37;;
71639;SDS011;60912;48.968;10.124;2023-03-04T12:45:00;23.40;;;12.43;;
71639;SDS011;60912;48.968;10.124;2023-03-04T12:53:40;22.08;;;11.68;;
71639;SDS011;60912;48.968;10.124;2023-03-04T12:56:21;21.30;;;11.68;;
71639;SDS011;60912;48.968;10.124;2023-03-04T12:58:52;23.57;;;12.30;;
71639;SDS011;60912;48.968;10.124;2023-03-04T13:06:35;22.15;;;12.63;;
71639;SDS011;60912;48.968;10.124;2023-03-04T13:09:11;25.20;;;13.15;;
71639;SDS011;60912;48.968;10.124;2023-03-04T13:11:50;25.30;;;12.20;;
71639;SDS011;60912;48.968;10.124;2023-03-04T13:20:47;21.92;;;12.20;;
71639;SDS011;60912;48.968;10.124;2023-03-04T13:25:47;26.73;;;14.37;;
71639;SDS011;60912;48.968;10.124;2023-03-04T13:28:18;24.30;;;12.77;;
71639;SDS011;60912;48.968;10.124;2023-03-04T13:35:49;26.67;;;14.15;;
71639;SDS011;60912;48.968;10.124;2023-03-04T13:38:55;26.60;;;13.27;;
71639;SDS011;60912;48.968;10.124;2023-03-04T13:44:00;28.50;;;13.93;;
71639;SDS011;60912;48.968;10.124;2023-03-04T13:46:38;28.02;;;14.15;;
71639;SDS011;60912;48.968;10.124;2023-03-04T13:49:07;29.58;;;14.82;;
71639;SDS011;60912;48.968;10.124;2023-03-04T13:51:44;28.60;;;13.67;;
71639;SDS011;60912;48.968;10.124;2023-03-04T13:56:45;27.23;;;14.07;;
71639;SDS011;60912;48.968;10.124;2023-03-04T13:59:23;29.38;;;14.25;;
71639;SDS011;60912;48.968;10.124;2023-03-04T14:01:53;29.38;;;13.93;;
71639;SDS011;60912;48.968;10.124;2023-03-04T14:07:17;29.63;;;14.70;;
71639;SDS011;60912;48.968;10.124;2023-03-04T14:09:53;28.98;;;15.55;;
71639;SDS011;60912;48.968;10.124;2023-03-04T14:12:22;34.95;;;16.33;;
71639;SDS011;60912;48.968;10.124;2023-03-04T14:14:51;26.83;;;14.85;;
71639;SDS011;60912;48.968;10.124;2023-03-04T14:17:20;30.43;;;15.00;;
71639;SDS011;60912;48.968;10.124;2023-03-04T14:19:48;31.27;;;15.02;;
71639;SDS011;60912;48.968;10.124;2023-03-04T14:22:30;28.23;;;14.52;;
71639;SDS011;60912;48.968;10.124;2023-03-04T14:25:05;29.42;;;14.32;;
71639;SDS011;60912;48.968;10.124;2023-03-04T14:28:10;26.45;;;14.73;;
71639;SDS011;60912;48.968;10.124;2023-03-04T14:30:37;29.87;;;15.23;;
71639;SDS011;60912;48.968;10.124;2023-03-04T14:33:15;28.65;;;14.27;;
71639;SDS011;60912;48.968;10.124;2023-03-04T14:35:47;29.30;;;15.73;;
71639;SDS011;60912;48.968;10.124;2023-03-04T14:40:56;29.83;;;15.25;;
71639;SDS011;60912;48.968;10.124;2023-03-04T14:43:27;29.43;;;15.90;;
71639;SDS011;60912;48.968;10.124;2023-03-04T14:45:55;26.70;;;14.68;;
71639;SDS011;60912;48.968;10.124;2023-03-04T14:50:51;26.60;;;14.33;;
71639;SDS011;60912;48.968;10.124;2023-03-04T14:53:19;27.67;;;16.00;;
71639;SDS011;60912;48.968;10.124;2023-03-04T14:56:06;26.70;;;15.43;;
71639;SDS011;60912;48.968;10.124;2023-03-04T14:58:36;26.38;;;15.75;;
71639;SDS011;60912;48.968;10.124;2023-03-04T15:03:31;32.22;;;14.82;;
71639;SDS011;60912;48.968;10.124;2023-03-04T15:06:32;28.88;;;15.15;;
71639;SDS011;60912;48.968;10.124;2023-03-04T15:09:25;27.88;;;14.80;;
71639;SDS011;60912;48.968;10.124;2023-03-04T15:11:51;29.02;;;15.65;;
71639;SDS011;60912;48.968;10.124;2023-03-04T15:19:59;24.90;;;14.75;;
71639;SDS011;60912;48.968;10.124;2023-03-04T15:22:34;27.58;;;14.60;;
71639;SDS011;60912;48.968;10.124;2023-03-04T15:25:01;26.25;;;13.60;;
71639;SDS011;60912;48.968;10.124;2023-03-04T15:27:29;28.80;;;13.43;;
71639;SDS011;60912;48.968;10.124;2023-03-04T15:30:05;26.08;;;13.90;;
71639;SDS011;60912;48.968;10.124;2023-03-04T15:32:31;28.42;;;14.95;;
71639;SDS011;60912;48.968;10.124;2023-03-04T15:35:02;30.85;;;14.35;;
71639;SDS011;60912;48.968;10.124;2023-03-04T15:37:28;26.75;;;14.73;;
71639;SDS011;60912;48.968;10.124;2023-03-04T15:39:56;25.87;;;14.03;;
71639;SDS011;60912;48.968;10.124;2023-03-04T15:42:22;28.67;;;14.10;;
71639;SDS011;60912;48.968;10.124;2023-03-04T15:44:48;28.95;;;14.32;;
71639;SDS011;60912;48.968;10.124;2023-03-04T15:47:14;28.73;;;14.50;;
71639;SDS011;60912;48.968;10.124;2023-03-04T15:49:40;26.53;;;14.87;;
71639;SDS011;60912;48.968;10.124;2023-03-04T15:52:10;30.55;;;15.02;;
71639;SDS011;60912;48.968;10.124;2023-03-04T15:54:39;28.35;;;15.20;;
71639;SDS011;60912;48.968;10.124;2023-03-04T15:57:13;29.70;;;15.63;;
71639;SDS011;60912;48.968;10.124;2023-03-04T15:59:44;30.35;;;16.40;;
71639;SDS011;60912;48.968;10.124;2023-03-04T16:02:13;33.70;;;17.30;;
71639;SDS011;60912;48.968;10.124;2023-03-04T16:04:45;32.17;;;16.42;;
71639;SDS011;60912;48.968;10.124;2023-03-04T16:07:20;34.38;;;17.77;;
71639;SDS011;60912;48.968;10.124;2023-03-04T16:09:58;28.23;;;15.60;;
71639;SDS011;60912;48.968;10.124;2023-03-04T16:12:36;29.42;;;15.65;;
71639;SDS011;60912;48.968;10.124;2023-03-04T16:15:18;31.73;;;14.30;;
71639;SDS011;60912;48.968;10.124;2023-03-04T16:17:50;30.02;;;14.57;;
71639;SDS011;60912;48.968;10.124;2023-03-04T16:20:22;29.15;;;15.10;;
71639;SDS011;60912;48.968;10.124;2023-03-04T16:22:50;34.20;;;15.53;;